Saturday, February 28, 2015
12:27 UTC
  |  Log In   |  Register Free
Airport Search:

Mount Sterling-Montgomery County Airport
(KIOB)

Mount Sterling-Montgomery County Airport Diagram
No Airport Diagram Available

FAA data valid effective January 08, 2015 - March 05, 2015 (unless otherwise noted).

 
 
 
 
 
 
 
 
 
 
 
 
 
 

Current Aviation Weather for Mount Sterling-Montgomery County Airport (KIOB)

The most recent METAR observation for KIOB was updated at: 1211
METAR Summary (Translated METAR)
KIOB
281155Z AUTO 09007KT 10SM SCT075 BKN100 OVC120 M08/M15 A3066 RMK AO2
KSYM
281150Z AUTO 07008KT 10SM SCT046 BKN055 OVC070 M09/M17 A3067 RMK AO2
(20.8 nm NE from KIOB)
KLEX
281154Z 08010KT 10SM OVC100 M09/M15 A3064 RMK AO2 SLP392 T10891150 11083 21089 53007
(29.6 nm SW from KIOB)
TAF Summary (Translated TAF)
KSYM
(20.8 nm NE from KIOB)
281120Z 2812/0112 VRB03KT P6SM OVC060 FM010200 VRB06KT P6SM OVC030 FM010600 VRB06KT 1SM FZRA OVC010
KLEX
(29.6 nm SW from KIOB)
281136Z 2812/0112 08010KT P6SM BKN080 FM010100 10005KT P6SM BKN020 FM010900 11005KT 6SM BR VCSH BKN020
  Airport Weather Conditions for KIOB

 Current Weather at IOB
18° F
Overcast
East winds at 8.1 mph
IOB NOAA Radar

Pressure: 30.66 in
Humidity: 58%
Wind: East at 8.1 MPH (7 KT)
Dew Point: 5.0°F
Visibility: 10.00 mi


Airport Weather Forecast for KIOB

Translated METAR and TAF for KIOB
Translated METAR for KIOB (1227 UTC 28 February 2015)
found at http://aviationweather.gov/adds/metars/
 
METAR text: KIOB 281215Z AUTO 10007KT 10SM BKN100 OVC120 M08/M15 A3066 RMK AO2
Conditions at: KIOB (MOUNT STERLING , KY, US) observed 1215 UTC 28 February 2015
Temperature: -8.0°C (18°F)
Dewpoint: -15.0°C (5°F) [RH = 57%]
Pressure (altimeter): 30.66 inches Hg (1038.4 mb)
Winds: from the E (100 degrees) at 8 MPH (7 knots; 3.6 m/s)
Visibility: 10 or more miles (16+ km)
Ceiling: 10000 feet AGL
Clouds: broken clouds at 10000 feet AGL
overcast cloud deck at 12000 feet AGL
Weather: automated observation with no human augmentation;
there may or may not be significant weather present at this time
Translated TAF for KIOB

There is no translated TAF available for this airport

Find All Airport Services Find A Hotel Find A Rental Car Find A Golf Course Find A Restaurant $100 Hamburger



FBO's on the Field
FBO Company Facility Photos Services Transportation Aviation Fuel Prices: Prices include tax
Catering Weather Repair Courtesy Rental Type 100LL JetA JetA+ MOGAS 8087
 
Kentucky Airmotive Inc

This FBO has not yet been rated
FS:Shell
Last Updated: Feb-27
Login to update fuel prices
SS:
Contact Kentucky Airmotive IncMore FBO Information
 
Add another FBO Facility Photos Catering Weather Repair Courtesy Rental Type 100LL JetA JetA+ MOGAS 8087
Services Transportation Aviation Fuel Prices: Prices include tax


model-print
model-print
model-print
model-print